Polarstern — DBLK — position and weather

sailwx.info

Track history (hours):
 
Tides and Currents Weather Stations Pressure Air Temp Water Temp Dewpoint Dewpoint Depression Visibility Wind Speed Wind Dir Waves Ship Positions

Oceanographic research ship Polarstern (Germany)

Detailed information on ship capabilities available from University of Delaware's Ocean Information Center and ARCUS's ALIAS (Arctic Logistics Information and Support) project.

Last reported at 2015-May-25 02:00 UTC. Time now 2015-May-25 03:17 UTC.
Position N 72°00' E 013°00'.

Length 117.9 m; beam 25 m; draft 10.7 m.

MMSI: 211202460.

Wind from 360 at 16 knots

Barometer 1010.4 mb
Air temperature 2.9 ° C
Dewpoint -2.5 ° C
Water temperature 6.8 ° C

Date/timePositionNaut miles runAvg speedWind from/ knotsBaromVisibWave heightAir tempDewpointWater temp
2015-May-25 02:00N 72°00' E 013°00'1212.1 360 / 161010.4 2.9-2.5 6.8
2015-May-25 01:00N 71°48' E 013°06'6 6.3 360 / 161010.6 2.8-0.7 6.7
2015-May-25 00:00N 71°42' E 013°12'1212.1 350 / 161010.1 3.3-2.1 7.1
2015-May-24 23:00N 71°30' E 013°18'1212.2 010 / 161009.9 3.6-0.9 7.2
2015-May-24 22:00N 71°18' E 013°24'6 6.3 030 / 161009.5 3.1-0.4 7.0
2015-May-24 21:00N 71°12' E 013°30'1212.2 360 / 141008.9 4.0-1.0 7.0
2015-May-24 20:00N 71°00' E 013°36'1212.2 360 / 121008.7 3.9 0.7 7.0
2015-May-24 19:00N 70°48' E 013°42'1212.2 350 / 161008.2 4.4 0.3 7.1
2015-May-24 18:00N 70°36' E 013°48'6 6.3 340 / 121008.310.8 0.5 4.4-0.1 7.4
2015-May-24 17:00N 70°30' E 013°54'1212.2 340 / 161008.1 4.2-0.0 7.5
2015-May-24 16:00N 70°18' E 014°00'1010.1 300 / 81008.5 3.7 0.2 7.3
2015-May-24 15:00N 70°12' E 013°36'1010.2 010 / 81008.510.8 3.2-0.2 7.4
2015-May-24 14:00N 70°12' E 013°06'1010.2 340 / 121008.9 3.5 0.7 7.0
2015-May-24 13:00N 70°12' E 012°36'1010.2 320 / 101008.9 3.6-1.6 7.3
2015-May-24 12:00N 70°12' E 012°06'1212.2 300 / 81009.010.8 0.5 3.3-2.5 7.6
2015-May-24 11:00N 70°12' E 011°30'1212.2 320 / 141008.8 2.6-4.1 7.5
2015-May-24 10:00N 70°12' E 010°54'1211.8 310 / 161008.8 2.6-3.4 7.6
2015-May-24 09:00N 70°06' E 010°24'1010.2 330 / 141008.810.8 0.5 2.4-3.3 7.5
2015-May-24 08:00N 70°06' E 009°54'1010.2 330 / 121008.6 2.4-2.3 7.5
2015-May-24 07:00N 70°06' E 009°24'1010.2 330 / 161008.3 2.3-1.4 7.3
2015-May-24 06:00N 70°06' E 008°54'1010.2 340 / 161008.010.8 0.5 2.4-2.8 7.4
2015-May-24 05:00N 70°06' E 008°24'1010.2 330 / 161007.9 2.6-3.0 7.4
2015-May-24 04:00N 70°06' E 007°54'8 8.2 330 / 161007.9 2.6-3.6 7.5
2015-May-24 03:00N 70°06' E 007°30'1211.9 340 / 121008.2 2.5-2.7 6.8
2015-May-24 02:00N 70°00' E 007°00'2110.3 280 / 81008.8 2.5-4.3 6.5
2015-May-24 00:00N 70°00' E 006°00'1010.3 330 / 101008.8 2.2-5.1 6.5
2015-May-23 23:00N 70°00' E 005°30'1010.3 330 / 81008.8 2.3-4.6 6.3
2015-May-23 22:00N 70°00' E 005°00'1211.9 350 / 81009.0 2.4-3.9 6.4
2015-May-23 21:00N 69°54' E 004°30'1010.3 360 / 121008.8 2.4-3.5 6.2
2015-May-23 20:00N 69°54' E 004°00'1212.0 350 / 81008.8 2.5-3.5 6.2
2015-May-23 19:00N 69°42' E 004°00'6 6.0 360 / 81008.8 2.7-2.4 6.0
2015-May-23 18:00N 69°36' E 004°00'1212.0 350 / 81008.910.8 0.5 2.9-2.0 6.3
2015-May-23 17:00N 69°24' E 004°00'6 6.0 020 / 121008.6 3.2-1.5 6.3
2015-May-23 16:00N 69°18' E 004°00'1212.0 020 / 141008.3 3.6-0.2 6.9
2015-May-23 15:00N 69°06' E 004°00'6 6.0 360 / 191007.910.8 1.5 3.7-1.5 6.3
2015-May-23 14:00N 69°00' E 004°00'1212.0 360 / 211007.3 4.0-0.9 7.5
2015-May-23 13:00N 68°48' E 004°00'6 6.0 350 / 251006.8 4.2 0.3 6.7
2015-May-23 12:00N 68°42' E 004°00'1212.0 350 / 271006.110.8 2.0 4.8 1.3 7.0
2015-May-23 11:00N 68°30' E 004°00'6 6.4 350 / 251005.5 3.6 2.4 7.6
2015-May-23 10:00N 68°24' E 003°54'1212.0 330 / 251004.3 4.9 1.8 7.6
2015-May-23 09:00N 68°12' E 003°54'6 6.0 320 / 311004.010.8 3.0 4.2 0.8 7.3
2015-May-23 08:00N 68°06' E 003°54'1212.0 330 / 271004.3 4.3 1.3 7.5
2015-May-23 07:00N 67°54' E 003°54'6 6.0 310 / 271003.8 3.3 0.2 7.5
2015-May-23 06:00N 67°48' E 003°54'6 6.0 300 / 271003.710.8 3.0 3.0 1.1 7.5
2015-May-23 05:00N 67°42' E 003°54'1212.2 300 / 271004.1 4.1-0.5 7.5
2015-May-23 04:00N 67°30' E 003°48'6 6.0 310 / 291004.0 4.2 0.3 7.6
2015-May-23 03:00N 67°24' E 003°48'6 6.0 310 / 311003.6 4.3-0.2 7.6
2015-May-23 02:00N 67°18' E 003°48'6 6.0 320 / 331003.3 4.6 1.0 7.7
2015-May-23 01:00N 67°12' E 003°48'6 6.0 320 / 331002.6 5.4 2.7 8.2
2015-May-23 00:00N 67°06' E 003°48'1212.0 330 / 351001.9 4.8 3.1 8.3
2015-May-22 23:00N 66°54' E 003°48'6 6.0 310 / 211002.1 6.2 2.6 8.2
2015-May-22 22:00N 66°48' E 003°48'1212.0 330 / 161001.6 5.8 2.0 7.9
2015-May-22 21:00N 66°36' E 003°48'6 6.5 300 / 121000.9 5.9 2.3 8.0
2015-May-22 20:00N 66°30' E 003°42'1212.0 290 / 141000.1 5.9 2.0 8.1
2015-May-22 19:00N 66°18' E 003°42'6 6.0 270 / 10999.5 6.3 1.3 8.2
2015-May-22 18:00N 66°12' E 003°42'1212.0 240 / 6998.710.8 6.2 1.1 8.1
2015-May-22 17:00N 66°00' E 003°42'6 6.0 280 / 12998.0 5.6 0.1 8.0
2015-May-22 16:00N 65°54' E 003°42'1212.0 220 / 12997.7 6.6 1.8 8.2
2015-May-22 15:00N 65°42' E 003°42'1212.3 230 / 10997.7 5.9 1.2 8.5
2015-May-22 14:00N 65°30' E 003°36'6 6.0 250 / 10997.5 5.5 1.4 8.5
2015-May-22 13:00N 65°24' E 003°36'1212.0 250 / 16997.6 5.9 1.1 8.7
2015-May-22 12:00N 65°12' E 003°36'6 6.0 230 / 19997.710.8 1.5 6.0 2.1 8.6
2015-May-22 11:00N 65°06' E 003°36'1212.0 220 / 21997.8 5.7 1.5 8.7
2015-May-22 10:00N 64°54' E 003°36'1212.0 240 / 19998.2 5.5-0.2 8.6
2015-May-22 09:00N 64°42' E 003°36'6 6.0 230 / 29998.610.8 2.0 6.5 0.2 8.4
2015-May-22 08:00N 64°36' E 003°36'1212.3 240 / 27999.2 5.4 1.5 7.7
2015-May-22 07:00N 64°24' E 003°30'6 6.0 240 / 25999.6 6.5 1.5 8.4
2015-May-22 06:00N 64°18' E 003°30'1212.0 230 / 251000.110.8 2.5 6.7 2.2 8.6
2015-May-22 05:00N 64°06' E 003°30'6 6.0 240 / 29999.8 4.9 1.8 8.6
2015-May-22 04:00N 64°00' E 003°30'1212.0 250 / 251000.3 7.1 1.9 8.6
2015-May-22 03:00N 63°48' E 003°30'1212.0 270 / 271000.4 6.8 2.8 8.5
2015-May-22 02:00N 63°36' E 003°30'6 6.0 260 / 271000.5 7.2 3.7 9.1
2015-May-22 01:00N 63°30' E 003°30'1212.3 270 / 251001.0 7.4 4.8 9.0
2015-May-22 00:00N 63°18' E 003°24'1212.0 210 / 311001.0 8.7 8.5 9.0
2015-May-21 23:00N 63°06' E 003°24'1212.0 200 / 271002.7 8.7 8.4 9.0
2015-May-21 22:00N 62°54' E 003°24'6 6.0 200 / 271004.3 8.6 8.5 8.5
2015-May-21 21:00N 62°48' E 003°24'1212.0 200 / 271005.9 8.5 8.0 8.9
2015-May-21 20:00N 62°36' E 003°24'1212.0 200 / 251007.1 8.5 7.9 8.6
2015-May-21 19:00N 62°24' E 003°24'1212.3 200 / 231008.0 8.7 7.9 8.6
2015-May-21 18:00N 62°12' E 003°18'1212.0 210 / 231008.7 5.4 1.5 8.6 7.7 8.5
2015-May-21 17:00N 62°00' E 003°18'1212.0 210 / 211009.7 8.6 8.0 8.2
2015-May-21 16:00N 61°48' E 003°18'6 6.0 200 / 211010.4 8.4 8.2 8.4
2015-May-21 15:00N 61°42' E 003°18'1212.0 180 / 231010.6 2.2 1.5 8.7 7.6 8.5
2015-May-21 14:00N 61°30' E 003°18'1212.0 190 / 231011.6 8.9 7.4 8.6
2015-May-21 13:00N 61°18' E 003°18'1212.0 190 / 211012.0 8.1 6.3 8.6
2015-May-21 12:00N 61°06' E 003°18'7 6.7 210 / 191012.3 5.4 1.0 7.9 5.8 8.6
2015-May-21 11:00N 61°00' E 003°12'1212.0 220 / 211012.7 8.0 5.9 8.9
2015-May-21 10:00N 60°48' E 003°12'1212.4 180 / 211013.0 8.0 7.0 8.7
2015-May-21 09:00N 60°36' E 003°18'1212.0 200 / 191013.6 5.4 1.0 7.7 5.8 7.9
2015-May-21 08:00N 60°24' E 003°18'1212.0 210 / 141013.9 7.9 6.1 8.7
2015-May-21 07:00N 60°12' E 003°18'1212.4 220 / 161014.0 8.0 6.0 8.7
2015-May-21 06:00N 60°00' E 003°24'1212.0 240 / 161014.010.8 0.5 8.3 5.7 8.9
2015-May-21 05:00N 59°48' E 003°24'1212.0 250 / 121014.3 8.4 6.0 8.9
2015-May-21 04:00N 59°36' E 003°24'6 6.0 230 / 121014.3 8.3 6.2 8.8
2015-May-21 03:00N 59°30' E 003°24'1212.4 240 / 101014.5 8.4 5.2 8.8
2015-May-21 02:00N 59°18' E 003°30'1212.0 210 / 61014.7 8.4 5.5 8.8
2015-May-21 01:00N 59°06' E 003°30'1212.0 200 / 41014.9 8.4 5.4 8.4
2015-May-21 00:00N 58°54' E 003°30'7 6.8 250 / 61014.9 8.2 6.5 8.8
2015-May-20 23:00N 58°48' E 003°36'1413.5 210 / 21014.6 8.2 5.3 9.0
2015-May-20 22:00N 58°36' E 003°48'9 8.7 310 / 21014.5 8.2 6.2 9.0
2015-May-20 21:00N 58°30' E 004°00'1413.5 320 / 41014.2 8.4 6.0 7.9
2015-May-20 20:00N 58°18' E 004°12'9 8.7 320 / 61013.2 8.6 6.5 9.0
2015-May-20 19:00N 58°12' E 004°24'1413.6 310 / 41012.6 8.8 6.4 9.0
2015-May-20 18:00N 58°00' E 004°36'9 8.7 060 / 41011.527.0 8.6 5.6 8.9
2015-May-20 17:00N 57°54' E 004°48'1413.6 030 / 21010.7 8.6 5.4 9.0
2015-May-20 16:00N 57°42' E 005°00'9 8.8 050 / 21010.0 8.4 5.6 8.9
2015-May-20 15:00N 57°36' E 005°12'1413.6 100 / 41009.127.0 8.3 5.6 9.2
2015-May-20 14:00N 57°24' E 005°24'7 6.8 160 / 21008.3 8.4 6.1 9.2
2015-May-20 13:00N 57°18' E 005°30'7 6.8 180 / 21007.9 7.8 6.2 9.1
2015-May-20 12:00N 57°12' E 005°36'7 6.8 290 / 21007.110.8 7.6 6.3 8.9
2015-May-20 11:00N 57°06' E 005°42'1212.4 210 / 121006.1 8.1 6.6 8.2
2015-May-20 10:00N 56°54' E 005°48'1212.4 190 / 161005.8 8.2 6.4 8.5
2015-May-20 09:00N 56°42' E 005°54'7 6.8 180 / 161005.6 5.4 0.5 8.3 7.0 8.6
2015-May-20 08:00N 56°36' E 006°00'1212.4 190 / 161005.6 8.6 6.3 8.4
2015-May-20 07:00N 56°24' E 006°06'7 6.9 200 / 161005.1 8.5 6.2 8.4
2015-May-20 06:00N 56°18' E 006°12'1212.5 200 / 141004.610.8 0.5 8.4 6.8 8.5
2015-May-20 05:00N 56°06' E 006°18'1212.5 200 / 121004.7 8.4 7.2 8.5
2015-May-20 04:00N 55°54' E 006°24'1212.5 210 / 121004.6 8.3 6.9 8.4
2015-May-20 03:00N 55°42' E 006°30'1212.5 220 / 141004.6 8.3 6.7 8.5
2015-May-20 02:00N 55°30' E 006°36'3 7.0 220 / 141004.6 8.6 6.5 8.7
2015-May-20 01:33N 55°27' E 006°35'916.0
2015-May-20 01:00N 55°18' E 006°36'3 7.2 210 / 121004.5 8.9 6.9 8.9
2015-May-20 00:33N 55°16' E 006°40'4 7.5
2015-May-20 00:00N 55°12' E 006°42'614.8 200 / 121004.7 9.1 7.2 9.0
2015-May-19 23:33N 55°06' E 006°45'610.7
2015-May-19 23:00N 55°00' E 006°48'4 9.7 210 / 121004.9 9.3 7.1 9.2
2015-May-19 22:33N 54°57' E 006°52'5 9.0
2015-May-19 22:00N 54°54' E 007°00'715.4 210 / 121005.1 9.5 6.8 9.4
2015-May-19 21:33N 54°47' E 007°00'611.1
2015-May-19 21:00N 54°42' E 007°06'410.0 210 / 121005.2 9.4 7.0 9.4
2015-May-19 20:33N 54°38' E 007°08'814.5
2015-May-19 20:00N 54°30' E 007°12'3 6.3 230 / 141005.0 9.6 6.4 9.3
2015-May-19 19:33N 54°28' E 007°16'5 8.2
2015-May-19 19:00N 54°24' E 007°18'614.0 240 / 171004.5 9.8 6.4 9.0
2015-May-19 18:33N 54°19' E 007°23'813.8
2015-May-19 18:00N 54°12' E 007°30'3 6.6 240 / 191004.510.8 1.0 9.8 4.8 9.4
2015-May-19 17:33N 54°09' E 007°31'4 7.8
2015-May-19 17:00N 54°06' E 007°36'614.9 260 / 171004.5 10.0 5.1 9.7
2015-May-19 16:33N 53°60' E 007°39'610.7
2015-May-19 16:00N 53°54' E 007°42'512.2 210 / 171004.6 9.7 5.910.5
2015-May-19 15:33N 53°53' E 007°51'712.9
2015-May-19 15:00N 53°48' E 008°00'613.7 220 / 231004.010.8 1.010.1 5.410.8
2015-May-19 14:34N 53°47' E 008°10'1017.0
2015-May-19 14:00N 53°42' E 008°24'613.3 210 / 231004.6 10.7 6.011.8
2015-May-19 13:34N 53°37' E 008°29'1 2.1
2015-May-19 13:00N 53°36' E 008°30'3 5.8 290 / 81004.5 9.4 5.212.6
2015-May-19 12:33N 53°34' E 008°33'3 4.6
2015-May-19 12:00N 53°36' E 008°36'3 5.7 210 / 161003.5 14.0 3.513.0
2015-May-19 11:33N 53°34' E 008°33'3 4.6
2015-May-19 11:00N 53°36' E 008°36'3 5.6 220 / 171003.3 12.5 4.313.0
2015-May-19 10:32N 53°34' E 008°33'3 4.7
2015-May-19 10:00N 53°36' E 008°36'3 5.5 210 / 171003.2 11.9 4.012.9
2015-May-19 09:32N 53°34' E 008°33'3 4.7
2015-May-19 09:00N 53°36' E 008°36'3 5.4 210 / 121003.1 11.0 6.413.0
2015-May-19 08:31N 53°34' E 008°33'3 4.8
2015-May-19 08:00N 53°36' E 008°36'3 5.3 220 / 191002.4 10.5 5.912.9
2015-May-19 07:31N 53°34' E 008°33'3 4.9
2015-May-19 07:00N 53°36' E 008°36'3 5.8 220 / 161002.0 10.2 5.712.9
2015-May-19 06:33N 53°34' E 008°33'3 4.5
2015-May-19 06:00N 53°36' E 008°36'3 5.2 210 / 101001.9 9.7 7.912.9
2015-May-19 05:30N 53°34' E 008°33'3 5.0
2015-May-19 05:00N 53°36' E 008°36'3 5.1 220 / 121001.7 9.0 7.413.0
2015-May-19 04:30N 53°34' E 008°33'3 5.1
2015-May-19 04:00N 53°36' E 008°36'3 5.6 190 / 101001.0 9.1 7.313.0
2015-May-19 03:32N 53°34' E 008°33'3 4.7
2015-May-19 03:00N 53°36' E 008°36'3 5.5 190 / 81000.9 9.4 7.113.0
2015-May-19 02:32N 53°34' E 008°33'3 4.7
2015-May-19 02:00N 53°36' E 008°36'3 5.4 210 / 101001.3 9.3 7.113.0
2015-May-19 01:31N 53°34' E 008°33'3 4.8
2015-May-19 01:00N 53°36' E 008°36'3 5.3 220 / 121001.7 9.8 7.513.0
2015-May-19 00:31N 53°34' E 008°33'3 4.9
2015-May-19 00:00N 53°36' E 008°36'3 5.8 240 / 141001.7 10.2 7.313.1
2015-May-18 23:33N 53°34' E 008°33'3 4.5
2015-May-18 23:00N 53°36' E 008°36'3 5.7 220 / 141001.4 11.3 8.313.1
2015-May-18 22:33N 53°34' E 008°33'3 4.6
2015-May-18 22:00N 53°36' E 008°36'3 5.6 200 / 141001.4 12.1 8.913.1
2015-May-18 21:33N 53°34' E 008°33'3 4.6
2015-May-18 21:00N 53°36' E 008°36'3 5.6 210 / 161001.4 12.5 9.913.1
2015-May-18 20:32N 53°34' E 008°33'3 4.7
2015-May-18 20:00N 53°36' E 008°36'3 5.5 210 / 191001.3 12.5 9.513.1
2015-May-18 19:32N 53°34' E 008°33'3 4.7
2015-May-18 19:00N 53°36' E 008°36'3 5.4 190 / 121001.4 12.6 9.613.0
2015-May-18 18:31N 53°34' E 008°33'3 4.8
2015-May-18 18:00N 53°36' E 008°36'3 5.3 170 / 81001.9 12.4 9.613.1
2015-May-18 17:31N 53°34' E 008°33'3 4.9
2015-May-18 17:00N 53°36' E 008°36'3 5.8 190 / 101002.7 12.6 9.113.0
2015-May-18 16:33N 53°34' E 008°33'0 0.0
2015-May-18 15:33N 53°34' E 008°33'0 0.0
2015-May-18 14:33N 53°34' E 008°33'3 4.6
2015-May-18 14:00N 53°36' E 008°36'3 5.6 210 / 171004.9 15.0 5.413.0
2015-May-18 13:32N 53°34' E 008°33'3 4.7
2015-May-18 13:00N 53°36' E 008°36'3 5.5 210 / 161005.7 15.0 5.112.9
2015-May-18 12:32N 53°34' E 008°33'3 4.7
2015-May-18 12:00N 53°36' E 008°36'3 5.4 160 / 101006.7 14.4 5.313.0
2015-May-18 11:31N 53°34' E 008°33'0 0.0
2015-May-18 10:31N 53°34' E 008°33'0 0.0
2015-May-18 09:33N 53°34' E 008°33'0 0.0
2015-May-18 08:33N 53°34' E 008°33'3 4.6
2015-May-18 08:00N 53°36' E 008°36'3 5.6 160 / 81011.7 10.7 4.113.0
2015-May-18 07:33N 53°34' E 008°33'3 4.6
2015-May-18 07:00N 53°36' E 008°36'3 5.6 170 / 101012.8 9.6 4.513.0
2015-May-18 06:32N 53°34' E 008°33'3 4.7
2015-May-18 06:00N 53°36' E 008°36'3 5.5 170 / 81013.7 9.1 4.413.0
2015-May-18 05:32N 53°34' E 008°33'3 4.8
2015-May-18 05:00N 53°36' E 008°36'3 5.4 180 / 101014.5 8.4 4.913.0
2015-May-18 04:31N 53°34' E 008°33'3 4.8
2015-May-18 04:00N 53°36' E 008°36'3 5.3 180 / 101015.1 8.6 5.013.0
2015-May-18 03:31N 53°34' E 008°33'3 4.9
2015-May-18 03:00N 53°36' E 008°36'3 5.8 190 / 101015.7 9.0 4.613.1
2015-May-18 02:33N 53°34' E 008°33'3 4.5
2015-May-18 02:00N 53°36' E 008°36'3 5.7 220 / 101016.4 9.0 4.513.1
2015-May-18 01:33N 53°34' E 008°33'3 4.6
2015-May-18 01:00N 53°36' E 008°36'3 5.6 210 / 101016.9 9.0 4.313.1
2015-May-18 00:33N 53°34' E 008°33'3 4.6
2015-May-18 00:00N 53°36' E 008°36'3 5.5 220 / 121017.8 9.2 4.613.1
2015-May-17 23:32N 53°34' E 008°33'3 4.7
2015-May-17 23:00N 53°36' E 008°36'3 5.5 220 / 101018.3 9.6 5.013.2
2015-May-17 22:32N 53°34' E 008°33'3 4.7
2015-May-17 22:00N 53°36' E 008°36'3 5.4 230 / 101018.9 9.6 5.613.2
2015-May-17 21:31N 53°34' E 008°33'3 4.8
2015-May-17 21:00N 53°36' E 008°36'3 5.3 240 / 101019.3 9.8 5.313.2
2015-May-17 20:31N 53°34' E 008°33'3 4.9
2015-May-17 20:00N 53°36' E 008°36'3 5.8 260 / 61019.9 10.2 4.813.2
2015-May-17 19:33N 53°34' E 008°33'3 4.5
2015-May-17 19:00N 53°36' E 008°36'3 5.7 280 / 81020.0 11.0 5.113.2
2015-May-17 18:33N 53°34' E 008°33'3 4.6
2015-May-17 18:00N 53°36' E 008°36'3 5.6 290 / 121020.2 11.6 5.613.2
2015-May-17 17:32N 53°34' E 008°33'3 4.6
2015-May-17 17:00N 53°36' E 008°36'3 5.6 280 / 121020.5 12.4 3.913.2
2015-May-17 16:32N 53°34' E 008°33'3 4.7
2015-May-17 16:00N 53°36' E 008°36'3 5.5 290 / 161020.6 12.2 4.713.2
2015-May-17 15:32N 53°34' E 008°33'3 4.8
2015-May-17 15:00N 53°36' E 008°36'3 5.4 300 / 141020.9 11.4 6.913.2
2015-May-17 14:31N 53°34' E 008°33'3 4.8
2015-May-17 14:00N 53°36' E 008°36'3 5.3 270 / 101020.7 13.0 2.013.0
2015-May-17 13:31N 53°34' E 008°33'3 4.9
2015-May-17 13:00N 53°36' E 008°36'3 5.8 250 / 121021.2 12.0 4.213.0
2015-May-17 12:33N 53°34' E 008°33'3 4.5
2015-May-17 12:00N 53°36' E 008°36'3 5.7 300 / 121021.2 11.5 3.813.0
2015-May-17 11:33N 53°34' E 008°33'3 4.6
2015-May-17 11:00N 53°36' E 008°36'3 5.6 280 / 101021.7 11.9 4.312.9
2015-May-17 10:32N 53°34' E 008°33'3 4.6
2015-May-17 10:00N 53°36' E 008°36'3 5.5 240 / 191021.9 11.6 3.812.8
2015-May-17 09:32N 53°34' E 008°33'3 4.7
2015-May-17 09:00N 53°36' E 008°36'3 4.9 280 / 81022.1 11.8 3.412.8
2015-May-17 08:29N 53°34' E 008°33'3 5.2
2015-May-17 08:00N 53°36' E 008°36'3 5.4 260 / 101022.4 11.1 5.312.8
2015-May-17 07:31N 53°34' E 008°33'3 4.8
2015-May-17 07:00N 53°36' E 008°36'3 5.3 240 / 161022.5 9.5 6.612.8
2015-May-17 06:31N 53°34' E 008°33'3 4.9
2015-May-17 06:00N 53°36' E 008°36'3 5.8 250 / 101022.3 9.4 6.712.7
2015-May-17 05:33N 53°34' E 008°33'3 4.5
2015-May-17 05:00N 53°36' E 008°36'3 5.7 230 / 141022.3 8.2 6.212.8
2015-May-17 04:33N 53°34' E 008°33'3 4.6
2015-May-17 04:00N 53°36' E 008°36'3 5.6 230 / 121022.1 8.0 5.912.7
2015-May-17 03:32N 53°34' E 008°33'3 4.6
2015-May-17 03:00N 53°36' E 008°36'3 5.5 230 / 141022.1 8.0 5.812.7
2015-May-17 02:32N 53°34' E 008°33'3 4.7
2015-May-17 02:00N 53°36' E 008°36'3 5.5 240 / 141022.0 8.1 5.612.8
2015-May-17 01:32N 53°34' E 008°33'3 4.8
2015-May-17 01:00N 53°36' E 008°36'3 5.4 240 / 121022.2 7.8 5.612.8
2015-May-17 00:31N 53°34' E 008°33'3 4.8
2015-May-17 00:00N 53°36' E 008°36'3 5.8 250 / 101022.2 8.2 5.512.8
2015-May-16 23:33N 53°34' E 008°33'3 4.4
2015-May-16 23:00N 53°36' E 008°30'0 0.5 270 / 161022.1 8.7 6.012.4
2015-May-16 22:33N 53°36' E 008°30'712.7
2015-May-16 22:00N 53°42' E 008°24'715.2 280 / 191021.9 9.6 5.011.9
2015-May-16 21:34N 53°44' E 008°14'915.6
2015-May-16 21:00N 53°48' E 008°00'613.9 290 / 171021.8 9.7 6.110.3
2015-May-16 20:34N 53°52' E 007°52'611.4
2015-May-16 20:00N 53°54' E 007°42'716.4 290 / 171021.5 9.3 6.0 9.8
2015-May-16 19:34N 54°00' E 007°36'712.1
2015-May-16 19:00N 54°06' E 007°30'613.9 300 / 211020.8 9.2 6.2 9.2
2015-May-16 18:33N 54°11' E 007°26'711.7
2015-May-16 18:00N 54°18' E 007°24'716.7 300 / 231020.0 9.3 6.9 9.9
2015-May-16 17:33N 54°25' E 007°21'5 9.3
2015-May-16 17:00N 54°30' E 007°18'1 2.0 290 / 171019.2 9.3 7.3 9.4
2015-May-16 16:33N 54°31' E 007°19'1 1.6
2015-May-16 16:00N 54°30' E 007°18'0 0.8 290 / 211018.7 9.4 7.4 9.4
2015-May-16 15:33N 54°30' E 007°17'0 0.6
2015-May-16 15:00N 54°30' E 007°18'1 3.1 290 / 231017.6 9.3 7.5 9.4
2015-May-16 14:33N 54°30' E 007°16'2 3.8
2015-May-16 14:00N 54°30' E 007°12'1 3.1 280 / 251016.9 9.5 7.9 9.3
2015-May-16 13:33N 54°30' E 007°14'1 2.5
2015-May-16 13:00N 54°30' E 007°12'1 3.2 280 / 191016.2 9.5 8.2 9.3
2015-May-16 12:33N 54°30' E 007°14'1 2.4
2015-May-16 12:00N 54°30' E 007°12'2 3.7 260 / 171015.5 9.6 9.4 9.2
2015-May-16 11:34N 54°29' E 007°14'2 2.8
2015-May-16 11:00N 54°30' E 007°12'2 5.1 240 / 191015.2 9.7 9.7 9.2
2015-May-16 10:33N 54°28' E 007°13'2 4.0
2015-May-16 10:00N 54°30' E 007°12'3 6.6 220 / 191014.9 9.8 9.8 9.2
2015-May-16 09:33N 54°27' E 007°12'1 1.3
2015-May-16 08:33N 54°27' E 007°10'4 3.9
2015-May-16 07:33N 54°30' E 007°06'1110.7
2015-May-16 06:33N 54°21' E 007°15'5 5.0
2015-May-16 05:33N 54°17' E 007°21'2 2.2
2015-May-16 04:33N 54°19' E 007°20'2 1.8
2015-May-16 03:33N 54°20' E 007°17'1212.4
2015-May-16 02:33N 54°10' E 007°30'1313.0
2015-May-16 01:33N 53°59' E 007°40'1110.6
2015-May-16 00:33N 53°52' E 007°54'1413.7
2015-May-15 23:34N 53°44' E 008°14'1312.6
2015-May-15 22:33N 53°36' E 008°30'3 2.5
2015-May-15 21:29N 53°34' E 008°33'0 0.3
2015-May-15 20:31N 53°34' E 008°33'0 0.0
2015-May-15 19:31N 53°34' E 008°33'0 0.0
2015-May-15 18:33N 53°34' E 008°33'0 0.0
2015-May-15 17:33N 53°34' E 008°33'0 0.0
2015-May-15 16:33N 53°34' E 008°33'0 0.0
2015-May-15 15:32N 53°34' E 008°33'0 0.0
2015-May-15 14:32N 53°34' E 008°33'0 0.0
2015-May-15 13:31N 53°34' E 008°33'0 0.0
2015-May-15 12:31N 53°34' E 008°33'0 0.0
2015-May-15 11:33N 53°34' E 008°33'0 0.0
2015-May-15 10:33N 53°34' E 008°33'0 0.0
2015-May-15 09:30N 53°34' E 008°33'0 0.0
2015-May-15 08:32N 53°34' E 008°33'0 0.0
2015-May-15 07:32N 53°34' E 008°33'0 0.0
2015-May-15 06:31N 53°34' E 008°33'0 0.0
2015-May-15 05:31N 53°34' E 008°33'0 0.0
2015-May-15 04:33N 53°34' E 008°33'0 0.0
2015-May-15 03:33N 53°34' E 008°33'0 0.0
2015-May-15 02:33N 53°34' E 008°33'  
Track history (hours):
 
Tides and Currents Weather Stations Pressure Air Temp Water Temp Dewpoint Dewpoint Depression Visibility Wind Speed Wind Dir Waves Ship Positions

Oceanographic research ship Polarstern (Germany)

Detailed information on ship capabilities available from University of Delaware's Ocean Information Center and ARCUS's ALIAS (Arctic Logistics Information and Support) project.

Last reported at 2015-May-25 02:00 UTC. Time now 2015-May-25 03:17 UTC.
Position N 72°00' E 013°00'.

Length 117.9 m; beam 25 m; draft 10.7 m.

MMSI: 211202460.

Wind from 360 at 16 knots

Barometer 1010.4 mb
Air temperature 2.9 ° C
Dewpoint -2.5 ° C
Water temperature 6.8 ° C

Date/timePositionNaut miles runAvg speedWind from/ knotsBaromVisibWave heightAir tempDewpointWater temp
2015-May-25 02:00N 72°00' E 013°00'1212.1 360 / 161010.4 2.9-2.5 6.8
2015-May-25 01:00N 71°48' E 013°06'6 6.3 360 / 161010.6 2.8-0.7 6.7
2015-May-25 00:00N 71°42' E 013°12'1212.1 350 / 161010.1 3.3-2.1 7.1
2015-May-24 23:00N 71°30' E 013°18'1212.2 010 / 161009.9 3.6-0.9 7.2
2015-May-24 22:00N 71°18' E 013°24'6 6.3 030 / 161009.5 3.1-0.4 7.0
2015-May-24 21:00N 71°12' E 013°30'1212.2 360 / 141008.9 4.0-1.0 7.0
2015-May-24 20:00N 71°00' E 013°36'1212.2 360 / 121008.7 3.9 0.7 7.0
2015-May-24 19:00N 70°48' E 013°42'1212.2 350 / 161008.2 4.4 0.3 7.1
2015-May-24 18:00N 70°36' E 013°48'6 6.3 340 / 121008.310.8 0.5 4.4-0.1 7.4
2015-May-24 17:00N 70°30' E 013°54'1212.2 340 / 161008.1 4.2-0.0 7.5
2015-May-24 16:00N 70°18' E 014°00'1010.1 300 / 81008.5 3.7 0.2 7.3
2015-May-24 15:00N 70°12' E 013°36'1010.2 010 / 81008.510.8 3.2-0.2 7.4
2015-May-24 14:00N 70°12' E 013°06'1010.2 340 / 121008.9 3.5 0.7 7.0
2015-May-24 13:00N 70°12' E 012°36'1010.2 320 / 101008.9 3.6-1.6 7.3
2015-May-24 12:00N 70°12' E 012°06'1212.2 300 / 81009.010.8 0.5 3.3-2.5 7.6
2015-May-24 11:00N 70°12' E 011°30'1212.2 320 / 141008.8 2.6-4.1 7.5
2015-May-24 10:00N 70°12' E 010°54'1211.8 310 / 161008.8 2.6-3.4 7.6
2015-May-24 09:00N 70°06' E 010°24'1010.2 330 / 141008.810.8 0.5 2.4-3.3 7.5
2015-May-24 08:00N 70°06' E 009°54'1010.2 330 / 121008.6 2.4-2.3 7.5
2015-May-24 07:00N 70°06' E 009°24'1010.2 330 / 161008.3 2.3-1.4 7.3
2015-May-24 06:00N 70°06' E 008°54'1010.2 340 / 161008.010.8 0.5 2.4-2.8 7.4
2015-May-24 05:00N 70°06' E 008°24'1010.2 330 / 161007.9 2.6-3.0 7.4
2015-May-24 04:00N 70°06' E 007°54'8 8.2 330 / 161007.9 2.6-3.6 7.5
2015-May-24 03:00N 70°06' E 007°30'1211.9 340 / 121008.2 2.5-2.7 6.8
2015-May-24 02:00N 70°00' E 007°00'2110.3 280 / 81008.8 2.5-4.3 6.5
2015-May-24 00:00N 70°00' E 006°00'1010.3 330 / 101008.8 2.2-5.1 6.5
2015-May-23 23:00N 70°00' E 005°30'1010.3 330 / 81008.8 2.3-4.6 6.3
2015-May-23 22:00N 70°00' E 005°00'1211.9 350 / 81009.0 2.4-3.9 6.4
2015-May-23 21:00N 69°54' E 004°30'1010.3 360 / 121008.8 2.4-3.5 6.2
2015-May-23 20:00N 69°54' E 004°00'1212.0 350 / 81008.8 2.5-3.5 6.2
2015-May-23 19:00N 69°42' E 004°00'6 6.0 360 / 81008.8 2.7-2.4 6.0
2015-May-23 18:00N 69°36' E 004°00'1212.0 350 / 81008.910.8 0.5 2.9-2.0 6.3
2015-May-23 17:00N 69°24' E 004°00'6 6.0 020 / 121008.6 3.2-1.5 6.3
2015-May-23 16:00N 69°18' E 004°00'1212.0 020 / 141008.3 3.6-0.2 6.9
2015-May-23 15:00N 69°06' E 004°00'6 6.0 360 / 191007.910.8 1.5 3.7-1.5 6.3
2015-May-23 14:00N 69°00' E 004°00'1212.0 360 / 211007.3 4.0-0.9 7.5
2015-May-23 13:00N 68°48' E 004°00'6 6.0 350 / 251006.8 4.2 0.3 6.7
2015-May-23 12:00N 68°42' E 004°00'1212.0 350 / 271006.110.8 2.0 4.8 1.3 7.0
2015-May-23 11:00N 68°30' E 004°00'6 6.4 350 / 251005.5 3.6 2.4 7.6
2015-May-23 10:00N 68°24' E 003°54'1212.0 330 / 251004.3 4.9 1.8 7.6
2015-May-23 09:00N 68°12' E 003°54'6 6.0 320 / 311004.010.8 3.0 4.2 0.8 7.3
2015-May-23 08:00N 68°06' E 003°54'1212.0 330 / 271004.3 4.3 1.3 7.5
2015-May-23 07:00N 67°54' E 003°54'6 6.0 310 / 271003.8 3.3 0.2 7.5
2015-May-23 06:00N 67°48' E 003°54'6 6.0 300 / 271003.710.8 3.0 3.0 1.1 7.5
2015-May-23 05:00N 67°42' E 003°54'1212.2 300 / 271004.1 4.1-0.5 7.5
2015-May-23 04:00N 67°30' E 003°48'6 6.0 310 / 291004.0 4.2 0.3 7.6
2015-May-23 03:00N 67°24' E 003°48'6 6.0 310 / 311003.6 4.3-0.2 7.6
2015-May-23 02:00N 67°18' E 003°48'6 6.0 320 / 331003.3 4.6 1.0 7.7
2015-May-23 01:00N 67°12' E 003°48'6 6.0 320 / 331002.6 5.4 2.7 8.2
2015-May-23 00:00N 67°06' E 003°48'1212.0 330 / 351001.9 4.8 3.1 8.3
2015-May-22 23:00N 66°54' E 003°48'6 6.0 310 / 211002.1 6.2 2.6 8.2
2015-May-22 22:00N 66°48' E 003°48'1212.0 330 / 161001.6 5.8 2.0 7.9
2015-May-22 21:00N 66°36' E 003°48'6 6.5 300 / 121000.9 5.9 2.3 8.0
2015-May-22 20:00N 66°30' E 003°42'1212.0 290 / 141000.1 5.9 2.0 8.1
2015-May-22 19:00N 66°18' E 003°42'6 6.0 270 / 10999.5 6.3 1.3 8.2
2015-May-22 18:00N 66°12' E 003°42'1212.0 240 / 6998.710.8 6.2 1.1 8.1
2015-May-22 17:00N 66°00' E 003°42'6 6.0 280 / 12998.0 5.6 0.1 8.0
2015-May-22 16:00N 65°54' E 003°42'1212.0 220 / 12997.7 6.6 1.8 8.2
2015-May-22 15:00N 65°42' E 003°42'1212.3 230 / 10997.7 5.9 1.2 8.5
2015-May-22 14:00N 65°30' E 003°36'6 6.0 250 / 10997.5 5.5 1.4 8.5
2015-May-22 13:00N 65°24' E 003°36'1212.0 250 / 16997.6 5.9 1.1 8.7
2015-May-22 12:00N 65°12' E 003°36'6 6.0 230 / 19997.710.8 1.5 6.0 2.1 8.6
2015-May-22 11:00N 65°06' E 003°36'1212.0 220 / 21997.8 5.7 1.5 8.7
2015-May-22 10:00N 64°54' E 003°36'1212.0 240 / 19998.2 5.5-0.2 8.6
2015-May-22 09:00N 64°42' E 003°36'6 6.0 230 / 29998.610.8 2.0 6.5 0.2 8.4
2015-May-22 08:00N 64°36' E 003°36'1212.3 240 / 27999.2 5.4 1.5 7.7
2015-May-22 07:00N 64°24' E 003°30'6 6.0 240 / 25999.6 6.5 1.5 8.4
2015-May-22 06:00N 64°18' E 003°30'1212.0 230 / 251000.110.8 2.5 6.7 2.2 8.6
2015-May-22 05:00N 64°06' E 003°30'6 6.0 240 / 29999.8 4.9 1.8 8.6
2015-May-22 04:00N 64°00' E 003°30'1212.0 250 / 251000.3 7.1 1.9 8.6
2015-May-22 03:00N 63°48' E 003°30'1212.0 270 / 271000.4 6.8 2.8 8.5
2015-May-22 02:00N 63°36' E 003°30'6 6.0 260 / 271000.5 7.2 3.7 9.1
2015-May-22 01:00N 63°30' E 003°30'1212.3 270 / 251001.0 7.4 4.8 9.0
2015-May-22 00:00N 63°18' E 003°24'1212.0 210 / 311001.0 8.7 8.5 9.0
2015-May-21 23:00N 63°06' E 003°24'1212.0 200 / 271002.7 8.7 8.4 9.0
2015-May-21 22:00N 62°54' E 003°24'6 6.0 200 / 271004.3 8.6 8.5 8.5
2015-May-21 21:00N 62°48' E 003°24'1212.0 200 / 271005.9 8.5 8.0 8.9
2015-May-21 20:00N 62°36' E 003°24'1212.0 200 / 251007.1 8.5 7.9 8.6
2015-May-21 19:00N 62°24' E 003°24'1212.3 200 / 231008.0 8.7 7.9 8.6
2015-May-21 18:00N 62°12' E 003°18'1212.0 210 / 231008.7 5.4 1.5 8.6 7.7 8.5
2015-May-21 17:00N 62°00' E 003°18'1212.0 210 / 211009.7 8.6 8.0 8.2
2015-May-21 16:00N 61°48' E 003°18'6 6.0 200 / 211010.4 8.4 8.2 8.4
2015-May-21 15:00N 61°42' E 003°18'1212.0 180 / 231010.6 2.2 1.5 8.7 7.6 8.5
2015-May-21 14:00N 61°30' E 003°18'1212.0 190 / 231011.6 8.9 7.4 8.6
2015-May-21 13:00N 61°18' E 003°18'1212.0 190 / 211012.0 8.1 6.3 8.6
2015-May-21 12:00N 61°06' E 003°18'7 6.7 210 / 191012.3 5.4 1.0 7.9 5.8 8.6
2015-May-21 11:00N 61°00' E 003°12'1212.0 220 / 211012.7 8.0 5.9 8.9
2015-May-21 10:00N 60°48' E 003°12'1212.4 180 / 211013.0 8.0 7.0 8.7
2015-May-21 09:00N 60°36' E 003°18'1212.0 200 / 191013.6 5.4 1.0 7.7 5.8 7.9
2015-May-21 08:00N 60°24' E 003°18'1212.0 210 / 141013.9 7.9 6.1 8.7
2015-May-21 07:00N 60°12' E 003°18'1212.4 220 / 161014.0 8.0 6.0 8.7
2015-May-21 06:00N 60°00' E 003°24'1212.0 240 / 161014.010.8 0.5 8.3 5.7 8.9
2015-May-21 05:00N 59°48' E 003°24'1212.0 250 / 121014.3 8.4 6.0 8.9
2015-May-21 04:00N 59°36' E 003°24'6 6.0 230 / 121014.3 8.3 6.2 8.8
2015-May-21 03:00N 59°30' E 003°24'1212.4 240 / 101014.5 8.4 5.2 8.8
2015-May-21 02:00N 59°18' E 003°30'1212.0 210 / 61014.7 8.4 5.5 8.8
2015-May-21 01:00N 59°06' E 003°30'1212.0 200 / 41014.9 8.4 5.4 8.4
2015-May-21 00:00N 58°54' E 003°30'7 6.8 250 / 61014.9 8.2 6.5 8.8
2015-May-20 23:00N 58°48' E 003°36'1413.5 210 / 21014.6 8.2 5.3 9.0
2015-May-20 22:00N 58°36' E 003°48'9 8.7 310 / 21014.5 8.2 6.2 9.0
2015-May-20 21:00N 58°30' E 004°00'1413.5 320 / 41014.2 8.4 6.0 7.9
2015-May-20 20:00N 58°18' E 004°12'9 8.7 320 / 61013.2 8.6 6.5 9.0
2015-May-20 19:00N 58°12' E 004°24'1413.6 310 / 41012.6 8.8 6.4 9.0
2015-May-20 18:00N 58°00' E 004°36'9 8.7 060 / 41011.527.0 8.6 5.6 8.9
2015-May-20 17:00N 57°54' E 004°48'1413.6 030 / 21010.7 8.6 5.4 9.0
2015-May-20 16:00N 57°42' E 005°00'9 8.8 050 / 21010.0 8.4 5.6 8.9
2015-May-20 15:00N 57°36' E 005°12'1413.6 100 / 41009.127.0 8.3 5.6 9.2
2015-May-20 14:00N 57°24' E 005°24'7 6.8 160 / 21008.3 8.4 6.1 9.2
2015-May-20 13:00N 57°18' E 005°30'7 6.8 180 / 21007.9 7.8 6.2 9.1
2015-May-20 12:00N 57°12' E 005°36'7 6.8 290 / 21007.110.8 7.6 6.3 8.9
2015-May-20 11:00N 57°06' E 005°42'1212.4 210 / 121006.1 8.1 6.6 8.2
2015-May-20 10:00N 56°54' E 005°48'1212.4 190 / 161005.8 8.2 6.4 8.5
2015-May-20 09:00N 56°42' E 005°54'7 6.8 180 / 161005.6 5.4 0.5 8.3 7.0 8.6
2015-May-20 08:00N 56°36' E 006°00'1212.4 190 / 161005.6 8.6 6.3 8.4
2015-May-20 07:00N 56°24' E 006°06'7 6.9 200 / 161005.1 8.5 6.2 8.4
2015-May-20 06:00N 56°18' E 006°12'1212.5 200 / 141004.610.8 0.5 8.4 6.8 8.5
2015-May-20 05:00N 56°06' E 006°18'1212.5 200 / 121004.7 8.4 7.2 8.5
2015-May-20 04:00N 55°54' E 006°24'1212.5 210 / 121004.6 8.3 6.9 8.4
2015-May-20 03:00N 55°42' E 006°30'1212.5 220 / 141004.6 8.3 6.7 8.5
2015-May-20 02:00N 55°30' E 006°36'3 7.0 220 / 141004.6 8.6 6.5 8.7
2015-May-20 01:33N 55°27' E 006°35'916.0
2015-May-20 01:00N 55°18' E 006°36'3 7.2 210 / 121004.5 8.9 6.9 8.9
2015-May-20 00:33N 55°16' E 006°40'4 7.5
2015-May-20 00:00N 55°12' E 006°42'614.8 200 / 121004.7 9.1 7.2 9.0
2015-May-19 23:33N 55°06' E 006°45'610.7
2015-May-19 23:00N 55°00' E 006°48'4 9.7 210 / 121004.9 9.3 7.1 9.2
2015-May-19 22:33N 54°57' E 006°52'5 9.0
2015-May-19 22:00N 54°54' E 007°00'715.4 210 / 121005.1 9.5 6.8 9.4
2015-May-19 21:33N 54°47' E 007°00'611.1
2015-May-19 21:00N 54°42' E 007°06'410.0 210 / 121005.2 9.4 7.0 9.4
2015-May-19 20:33N 54°38' E 007°08'814.5
2015-May-19 20:00N 54°30' E 007°12'3 6.3 230 / 141005.0 9.6 6.4 9.3
2015-May-19 19:33N 54°28' E 007°16'5 8.2
2015-May-19 19:00N 54°24' E 007°18'614.0 240 / 171004.5 9.8 6.4 9.0
2015-May-19 18:33N 54°19' E 007°23'813.8
2015-May-19 18:00N 54°12' E 007°30'3 6.6 240 / 191004.510.8 1.0 9.8 4.8 9.4
2015-May-19 17:33N 54°09' E 007°31'4 7.8
2015-May-19 17:00N 54°06' E 007°36'614.9 260 / 171004.5 10.0 5.1 9.7
2015-May-19 16:33N 53°60' E 007°39'610.7
2015-May-19 16:00N 53°54' E 007°42'512.2 210 / 171004.6 9.7 5.910.5
2015-May-19 15:33N 53°53' E 007°51'712.9
2015-May-19 15:00N 53°48' E 008°00'613.7 220 / 231004.010.8 1.010.1 5.410.8
2015-May-19 14:34N 53°47' E 008°10'1017.0
2015-May-19 14:00N 53°42' E 008°24'613.3 210 / 231004.6 10.7 6.011.8
2015-May-19 13:34N 53°37' E 008°29'1 2.1
2015-May-19 13:00N 53°36' E 008°30'3 5.8 290 / 81004.5 9.4 5.212.6
2015-May-19 12:33N 53°34' E 008°33'3 4.6
2015-May-19 12:00N 53°36' E 008°36'3 5.7 210 / 161003.5 14.0 3.513.0
2015-May-19 11:33N 53°34' E 008°33'3 4.6
2015-May-19 11:00N 53°36' E 008°36'3 5.6 220 / 171003.3 12.5 4.313.0
2015-May-19 10:32N 53°34' E 008°33'3 4.7
2015-May-19 10:00N 53°36' E 008°36'3 5.5 210 / 171003.2 11.9 4.012.9
2015-May-19 09:32N 53°34' E 008°33'3 4.7
2015-May-19 09:00N 53°36' E 008°36'3 5.4 210 / 121003.1 11.0 6.413.0
2015-May-19 08:31N 53°34' E 008°33'3 4.8
2015-May-19 08:00N 53°36' E 008°36'3 5.3 220 / 191002.4 10.5 5.912.9
2015-May-19 07:31N 53°34' E 008°33'3 4.9
2015-May-19 07:00N 53°36' E 008°36'3 5.8 220 / 161002.0 10.2 5.712.9
2015-May-19 06:33N 53°34' E 008°33'3 4.5
2015-May-19 06:00N 53°36' E 008°36'3 5.2 210 / 101001.9 9.7 7.912.9
2015-May-19 05:30N 53°34' E 008°33'3 5.0
2015-May-19 05:00N 53°36' E 008°36'3 5.1 220 / 121001.7 9.0 7.413.0
2015-May-19 04:30N 53°34' E 008°33'3 5.1
2015-May-19 04:00N 53°36' E 008°36'3 5.6 190 / 101001.0 9.1 7.313.0
2015-May-19 03:32N 53°34' E 008°33'3 4.7
2015-May-19 03:00N 53°36' E 008°36'3 5.5 190 / 81000.9 9.4 7.113.0
2015-May-19 02:32N 53°34' E 008°33'3 4.7
2015-May-19 02:00N 53°36' E 008°36'3 5.4 210 / 101001.3 9.3 7.113.0
2015-May-19 01:31N 53°34' E 008°33'3 4.8
2015-May-19 01:00N 53°36' E 008°36'3 5.3 220 / 121001.7 9.8 7.513.0
2015-May-19 00:31N 53°34' E 008°33'3 4.9
2015-May-19 00:00N 53°36' E 008°36'3 5.8 240 / 141001.7 10.2 7.313.1
2015-May-18 23:33N 53°34' E 008°33'3 4.5
2015-May-18 23:00N 53°36' E 008°36'3 5.7 220 / 141001.4 11.3 8.313.1
2015-May-18 22:33N 53°34' E 008°33'3 4.6
2015-May-18 22:00N 53°36' E 008°36'3 5.6 200 / 141001.4 12.1 8.913.1
2015-May-18 21:33N 53°34' E 008°33'3 4.6
2015-May-18 21:00N 53°36' E 008°36'3 5.6 210 / 161001.4 12.5 9.913.1
2015-May-18 20:32N 53°34' E 008°33'3 4.7
2015-May-18 20:00N 53°36' E 008°36'3 5.5 210 / 191001.3 12.5 9.513.1
2015-May-18 19:32N 53°34' E 008°33'3 4.7
2015-May-18 19:00N 53°36' E 008°36'3 5.4 190 / 121001.4 12.6 9.613.0
2015-May-18 18:31N 53°34' E 008°33'3 4.8
2015-May-18 18:00N 53°36' E 008°36'3 5.3 170 / 81001.9 12.4 9.613.1
2015-May-18 17:31N 53°34' E 008°33'3 4.9
2015-May-18 17:00N 53°36' E 008°36'3 5.8 190 / 101002.7 12.6 9.113.0
2015-May-18 16:33N 53°34' E 008°33'0 0.0
2015-May-18 15:33N 53°34' E 008°33'0 0.0
2015-May-18 14:33N 53°34' E 008°33'3 4.6
2015-May-18 14:00N 53°36' E 008°36'3 5.6 210 / 171004.9 15.0 5.413.0
2015-May-18 13:32N 53°34' E 008°33'3 4.7
2015-May-18 13:00N 53°36' E 008°36'3 5.5 210 / 161005.7 15.0 5.112.9
2015-May-18 12:32N 53°34' E 008°33'3 4.7
2015-May-18 12:00N 53°36' E 008°36'3 5.4 160 / 101006.7 14.4 5.313.0
2015-May-18 11:31N 53°34' E 008°33'0 0.0
2015-May-18 10:31N 53°34' E 008°33'0 0.0
2015-May-18 09:33N 53°34' E 008°33'0 0.0
2015-May-18 08:33N 53°34' E 008°33'3 4.6
2015-May-18 08:00N 53°36' E 008°36'3 5.6 160 / 81011.7 10.7 4.113.0
2015-May-18 07:33N 53°34' E 008°33'3 4.6
2015-May-18 07:00N 53°36' E 008°36'3 5.6 170 / 101012.8 9.6 4.513.0
2015-May-18 06:32N 53°34' E 008°33'3 4.7
2015-May-18 06:00N 53°36' E 008°36'3 5.5 170 / 81013.7 9.1 4.413.0
2015-May-18 05:32N 53°34' E 008°33'3 4.8
2015-May-18 05:00N 53°36' E 008°36'3 5.4 180 / 101014.5 8.4 4.913.0
2015-May-18 04:31N 53°34' E 008°33'3 4.8
2015-May-18 04:00N 53°36' E 008°36'3 5.3 180 / 101015.1 8.6 5.013.0
2015-May-18 03:31N 53°34' E 008°33'3 4.9
2015-May-18 03:00N 53°36' E 008°36'3 5.8 190 / 101015.7 9.0 4.613.1
2015-May-18 02:33N 53°34' E 008°33'3 4.5
2015-May-18 02:00N 53°36' E 008°36'3 5.7 220 / 101016.4 9.0 4.513.1
2015-May-18 01:33N 53°34' E 008°33'3 4.6
2015-May-18 01:00N 53°36' E 008°36'3 5.6 210 / 101016.9 9.0 4.313.1
2015-May-18 00:33N 53°34' E 008°33'3 4.6
2015-May-18 00:00N 53°36' E 008°36'3 5.5 220 / 121017.8 9.2 4.613.1
2015-May-17 23:32N 53°34' E 008°33'3 4.7
2015-May-17 23:00N 53°36' E 008°36'3 5.5 220 / 101018.3 9.6 5.013.2
2015-May-17 22:32N 53°34' E 008°33'3 4.7
2015-May-17 22:00N 53°36' E 008°36'3 5.4 230 / 101018.9 9.6 5.613.2
2015-May-17 21:31N 53°34' E 008°33'3 4.8
2015-May-17 21:00N 53°36' E 008°36'3 5.3 240 / 101019.3 9.8 5.313.2
2015-May-17 20:31N 53°34' E 008°33'3 4.9
2015-May-17 20:00N 53°36' E 008°36'3 5.8 260 / 61019.9 10.2 4.813.2
2015-May-17 19:33N 53°34' E 008°33'3 4.5
2015-May-17 19:00N 53°36' E 008°36'3 5.7 280 / 81020.0 11.0 5.113.2
2015-May-17 18:33N 53°34' E 008°33'3 4.6
2015-May-17 18:00N 53°36' E 008°36'3 5.6 290 / 121020.2 11.6 5.613.2
2015-May-17 17:32N 53°34' E 008°33'3 4.6
2015-May-17 17:00N 53°36' E 008°36'3 5.6 280 / 121020.5 12.4 3.913.2
2015-May-17 16:32N 53°34' E 008°33'3 4.7
2015-May-17 16:00N 53°36' E 008°36'3 5.5 290 / 161020.6 12.2 4.713.2
2015-May-17 15:32N 53°34' E 008°33'3 4.8
2015-May-17 15:00N 53°36' E 008°36'3 5.4 300 / 141020.9 11.4 6.913.2
2015-May-17 14:31N 53°34' E 008°33'3 4.8
2015-May-17 14:00N 53°36' E 008°36'3 5.3 270 / 101020.7 13.0 2.013.0
2015-May-17 13:31N 53°34' E 008°33'3 4.9
2015-May-17 13:00N 53°36' E 008°36'3 5.8 250 / 121021.2 12.0 4.213.0
2015-May-17 12:33N 53°34' E 008°33'3 4.5
2015-May-17 12:00N 53°36' E 008°36'3 5.7 300 / 121021.2 11.5 3.813.0
2015-May-17 11:33N 53°34' E 008°33'3 4.6
2015-May-17 11:00N 53°36' E 008°36'3 5.6 280 / 101021.7 11.9 4.312.9
2015-May-17 10:32N 53°34' E 008°33'3 4.6
2015-May-17 10:00N 53°36' E 008°36'3 5.5 240 / 191021.9 11.6 3.812.8
2015-May-17 09:32N 53°34' E 008°33'3 4.7
2015-May-17 09:00N 53°36' E 008°36'3 4.9 280 / 81022.1 11.8 3.412.8
2015-May-17 08:29N 53°34' E 008°33'3 5.2
2015-May-17 08:00N 53°36' E 008°36'3 5.4 260 / 101022.4 11.1 5.312.8
2015-May-17 07:31N 53°34' E 008°33'3 4.8
2015-May-17 07:00N 53°36' E 008°36'3 5.3 240 / 161022.5 9.5 6.612.8
2015-May-17 06:31N 53°34' E 008°33'3 4.9
2015-May-17 06:00N 53°36' E 008°36'3 5.8 250 / 101022.3 9.4 6.712.7
2015-May-17 05:33N 53°34' E 008°33'3 4.5
2015-May-17 05:00N 53°36' E 008°36'3 5.7 230 / 141022.3 8.2 6.212.8
2015-May-17 04:33N 53°34' E 008°33'3 4.6
2015-May-17 04:00N 53°36' E 008°36'3 5.6 230 / 121022.1 8.0 5.912.7
2015-May-17 03:32N 53°34' E 008°33'3 4.6
2015-May-17 03:00N 53°36' E 008°36'3 5.5 230 / 141022.1 8.0 5.812.7
2015-May-17 02:32N 53°34' E 008°33'3 4.7
2015-May-17 02:00N 53°36' E 008°36'3 5.5 240 / 141022.0 8.1 5.612.8
2015-May-17 01:32N 53°34' E 008°33'3 4.8
2015-May-17 01:00N 53°36' E 008°36'3 5.4 240 / 121022.2 7.8 5.612.8
2015-May-17 00:31N 53°34' E 008°33'3 4.8
2015-May-17 00:00N 53°36' E 008°36'3 5.8 250 / 101022.2 8.2 5.512.8
2015-May-16 23:33N 53°34' E 008°33'3 4.4
2015-May-16 23:00N 53°36' E 008°30'0 0.5 270 / 161022.1 8.7 6.012.4
2015-May-16 22:33N 53°36' E 008°30'712.7
2015-May-16 22:00N 53°42' E 008°24'715.2 280 / 191021.9 9.6 5.011.9
2015-May-16 21:34N 53°44' E 008°14'915.6
2015-May-16 21:00N 53°48' E 008°00'613.9 290 / 171021.8 9.7 6.110.3
2015-May-16 20:34N 53°52' E 007°52'611.4
2015-May-16 20:00N 53°54' E 007°42'716.4 290 / 171021.5 9.3 6.0 9.8
2015-May-16 19:34N 54°00' E 007°36'712.1
2015-May-16 19:00N 54°06' E 007°30'613.9 300 / 211020.8 9.2 6.2 9.2
2015-May-16 18:33N 54°11' E 007°26'711.7
2015-May-16 18:00N 54°18' E 007°24'716.7 300 / 231020.0 9.3 6.9 9.9
2015-May-16 17:33N 54°25' E 007°21'5 9.3
2015-May-16 17:00N 54°30' E 007°18'1 2.0 290 / 171019.2 9.3 7.3 9.4
2015-May-16 16:33N 54°31' E 007°19'1 1.6
2015-May-16 16:00N 54°30' E 007°18'0 0.8 290 / 211018.7 9.4 7.4 9.4
2015-May-16 15:33N 54°30' E 007°17'0 0.6
2015-May-16 15:00N 54°30' E 007°18'1 3.1 290 / 231017.6 9.3 7.5 9.4
2015-May-16 14:33N 54°30' E 007°16'2 3.8
2015-May-16 14:00N 54°30' E 007°12'1 3.1 280 / 251016.9 9.5 7.9 9.3
2015-May-16 13:33N 54°30' E 007°14'1 2.5
2015-May-16 13:00N 54°30' E 007°12'1 3.2 280 / 191016.2 9.5 8.2 9.3
2015-May-16 12:33N 54°30' E 007°14'1 2.4
2015-May-16 12:00N 54°30' E 007°12'2 3.7 260 / 171015.5 9.6 9.4 9.2
2015-May-16 11:34N 54°29' E 007°14'2 2.8
2015-May-16 11:00N 54°30' E 007°12'2 5.1 240 / 191015.2 9.7 9.7 9.2
2015-May-16 10:33N 54°28' E 007°13'2 4.0
2015-May-16 10:00N 54°30' E 007°12'3 6.6 220 / 191014.9 9.8 9.8 9.2
2015-May-16 09:33N 54°27' E 007°12'1 1.3
2015-May-16 08:33N 54°27' E 007°10'4 3.9
2015-May-16 07:33N 54°30' E 007°06'1110.7
2015-May-16 06:33N 54°21' E 007°15'5 5.0
2015-May-16 05:33N 54°17' E 007°21'2 2.2
2015-May-16 04:33N 54°19' E 007°20'2 1.8
2015-May-16 03:33N 54°20' E 007°17'1212.4
2015-May-16 02:33N 54°10' E 007°30'1313.0
2015-May-16 01:33N 53°59' E 007°40'1110.6
2015-May-16 00:33N 53°52' E 007°54'1413.7
2015-May-15 23:34N 53°44' E 008°14'1312.6
2015-May-15 22:33N 53°36' E 008°30'3 2.5
2015-May-15 21:29N 53°34' E 008°33'0 0.3
2015-May-15 20:31N 53°34' E 008°33'0 0.0
2015-May-15 19:31N 53°34' E 008°33'0 0.0
2015-May-15 18:33N 53°34' E 008°33'0 0.0
2015-May-15 17:33N 53°34' E 008°33'0 0.0
2015-May-15 16:33N 53°34' E 008°33'0 0.0
2015-May-15 15:32N 53°34' E 008°33'0 0.0
2015-May-15 14:32N 53°34' E 008°33'0 0.0
2015-May-15 13:31N 53°34' E 008°33'0 0.0
2015-May-15 12:31N 53°34' E 008°33'0 0.0
2015-May-15 11:33N 53°34' E 008°33'0 0.0
2015-May-15 10:33N 53°34' E 008°33'0 0.0
2015-May-15 09:30N 53°34' E 008°33'0 0.0
2015-May-15 08:32N 53°34' E 008°33'0 0.0
2015-May-15 07:32N 53°34' E 008°33'0 0.0
2015-May-15 06:31N 53°34' E 008°33'0 0.0
2015-May-15 05:31N 53°34' E 008°33'0 0.0
2015-May-15 04:33N 53°34' E 008°33'0 0.0
2015-May-15 03:33N 53°34' E 008°33'0 0.0
2015-May-15 02:33N 53°34' E 008°33'  

Dump ship's entire track history